Time;durP1;ratioP1;P1;durP2;ratioP2;P2;SDS_P1;SDS_P2;PMS_P1;PMS_P2;Temp;Humidity;BMP_temperature;BMP_pressure;BME280_temperature;BME280_humidity;BME280_pressure;Samples;Min_cycle;Max_cycle;Signal;HPM_P1;HPM_P2
2022/12/15 00:40:15;;;;;;;36.63;20.80;;;;;;;-4.53;100.00;100481.44;5072564;28;20110;-71
2022/12/15 00:42:40;;;;;;;41.90;22.13;;;;;;;-4.52;100.00;100483.09;5071871;28;20052;-71
2022/12/15 00:45:06;;;;;;;42.10;23.15;;;;;;;-4.54;100.00;100484.22;5070291;28;20036;-71
2022/12/15 00:47:32;;;;;;;34.70;19.55;;;;;;;-4.53;100.00;100494.66;5072258;28;20489;-71
2022/12/15 01:20:17;;;;;;;31.80;18.90;;;;;;;-4.59;100.00;100492.53;5052240;28;20040;-71
2022/12/15 01:22:43;;;;;;;33.45;18.92;;;;;;;-4.58;100.00;100512.69;5051797;28;20468;-71
2022/12/15 01:25:09;;;;;;;41.95;22.20;;;;;;;-4.58;100.00;100517.13;5070193;28;20021;-71
2022/12/15 01:27:34;;;;;;;32.33;19.10;;;;;;;-4.56;100.00;100512.56;5071928;28;20413;-71
2022/12/15 01:30:00;;;;;;;33.28;19.15;;;;;;;-4.59;100.00;100513.66;5072243;28;20028;-71
2022/12/15 01:32:26;;;;;;;31.10;17.90;;;;;;;-4.59;100.00;100508.38;5070909;28;20492;-71
2022/12/15 01:34:52;;;;;;;35.35;18.80;;;;;;;-4.57;100.00;100510.91;5069950;28;20471;-71
2022/12/15 01:37:17;;;;;;;33.22;19.35;;;;;;;-4.58;100.00;100493.38;5072114;28;20020;-71
2022/12/15 01:42:26;;;;;;;36.00;19.42;;;;;;;-4.58;100.00;100499.47;5071898;28;20035;-71
2022/12/15 01:44:52;;;;;;;34.55;19.02;;;;;;;-4.59;100.00;100497.81;5069464;28;20210;-71
2022/12/15 01:47:23;;;;;;;34.35;18.38;;;;;;;-4.62;100.00;100498.06;5071893;28;20448;-71
2022/12/15 01:49:49;;;;;;;35.42;19.08;;;;;;;-4.69;100.00;100513.63;5071540;28;20063;-71
2022/12/15 01:52:15;;;;;;;30.33;18.08;;;;;;;-4.76;100.00;100525.69;5072021;28;20032;-71
2022/12/15 01:54:52;;;;;;;34.03;19.27;;;;;;;-4.74;100.00;100520.28;5070251;28;20029;-71
2022/12/15 01:57:21;;;;;;;31.67;18.33;;;;;;;-4.69;100.00;100521.56;5050553;28;20040;-71
2022/12/15 01:59:51;;;;;;;39.85;20.40;;;;;;;-4.65;100.00;100527.38;5051714;28;20094;-71
2022/12/15 02:02:20;;;;;;;45.63;21.98;;;;;;;-4.66;100.00;100523.09;5049579;28;20448;-71
2022/12/15 02:04:47;;;;;;;46.65;23.42;;;;;;;-4.66;100.00;100529.19;5058479;28;20119;-71
2022/12/15 02:07:16;;;;;;;41.35;20.95;;;;;;;-4.68;100.00;100530.28;5069090;28;20041;-71
2022/12/15 02:09:43;;;;;;;37.65;19.73;;;;;;;-4.70;100.00;100545.44;5071310;28;20367;-71
2022/12/15 02:12:17;;;;;;;34.53;19.17;;;;;;;-4.68;100.00;100549.63;5071757;28;20021;-71
2022/12/15 02:14:51;;;;;;;41.15;19.33;;;;;;;-4.68;100.00;100556.69;5070295;28;20028;-70
2022/12/15 02:17:22;;;;;;;33.28;19.15;;;;;;;-4.69;100.00;100555.06;5075296;28;20032;-71
2022/12/15 02:20:22;;;;;;;34.17;19.10;;;;;;;-4.70;100.00;100548.91;5075126;28;20111;-71
2022/12/15 02:23:24;;;;;;;31.10;18.77;;;;;;;-4.70;100.00;100548.09;5073942;28;20032;-71
2022/12/15 02:26:17;;;;;;;29.48;18.10;;;;;;;-4.69;100.00;100549.78;5069769;28;20032;-71
2022/12/15 02:29:19;;;;;;;32.05;18.50;;;;;;;-4.70;100.00;100553.38;5074937;28;20021;-71
2022/12/15 02:31:57;;;;;;;31.25;17.73;;;;;;;-4.71;100.00;100556.97;5075269;28;20051;-70
2022/12/15 02:34:44;;;;;;;33.00;17.65;;;;;;;-4.68;100.00;100556.69;5073091;28;20055;-71
2022/12/15 02:37:17;;;;;;;32.40;17.15;;;;;;;-4.72;100.00;100555.31;5074981;28;20103;-71
2022/12/15 02:39:43;;;;;;;31.38;17.88;;;;;;;-4.72;100.00;100560.59;5074693;28;20029;-71
2022/12/15 02:42:12;;;;;;;33.38;18.85;;;;;;;-4.69;100.00;100555.06;5074884;28;20024;-71
2022/12/15 02:44:46;;;;;;;30.02;17.95;;;;;;;-4.69;100.00;100558.50;5072543;28;20059;-71
2022/12/15 02:47:45;;;;;;;31.63;19.17;;;;;;;-4.70;100.00;100554.19;5073581;28;20032;-71
2022/12/15 02:50:32;;;;;;;29.73;17.88;;;;;;;-4.68;100.00;100556.69;5072817;28;20103;-71
2022/12/15 02:53:28;;;;;;;34.88;17.35;;;;;;;-4.69;100.00;100566.44;5074415;28;20016;-72
2022/12/15 02:56:00;;;;;;;29.40;17.52;;;;;;;-4.69;100.00;100562.97;5071947;28;20377;-71
2022/12/15 02:58:59;;;;;;;30.15;17.77;;;;;;;-4.64;100.00;100568.66;5073387;28;20468;-71
2022/12/15 03:01:36;;;;;;;29.05;17.38;;;;;;;-4.69;100.00;100565.59;5072229;28;20016;-71
2022/12/15 03:04:05;;;;;;;32.72;17.95;;;;;;;-4.69;100.00;100560.31;5071885;28;20036;-71
2022/12/15 03:06:30;;;;;;;32.40;17.70;;;;;;;-4.69;100.00;100557.69;5073346;28;20082;-71
2022/12/15 03:08:56;;;;;;;31.95;18.23;;;;;;;-4.71;100.00;100556.97;5074440;28;20104;-72
2022/12/15 03:11:21;;;;;;;33.60;18.70;;;;;;;-4.73;100.00;100565.03;5074604;28;20112;-71
2022/12/15 03:13:46;;;;;;;32.10;18.27;;;;;;;-4.73;100.00;100570.31;5071844;28;20025;-71
2022/12/15 03:16:12;;;;;;;33.30;19.10;;;;;;;-4.73;100.00;100574.75;5071864;28;20352;-71
2022/12/15 03:18:37;;;;;;;35.35;19.00;;;;;;;-4.76;100.00;100575.84;5074312;28;20032;-71
2022/12/15 03:21:03;;;;;;;32.20;17.98;;;;;;;-4.75;100.00;100571.41;5074272;28;20040;-71
2022/12/15 03:23:28;;;;;;;32.78;19.00;;;;;;;-4.74;100.00;100566.00;5073388;28;20040;-71
2022/12/15 03:25:54;;;;;;;31.25;19.05;;;;;;;-4.72;100.00;100579.06;5072916;28;20482;-71
2022/12/15 03:28:20;;;;;;;32.75;18.42;;;;;;;-4.73;100.00;100580.03;5073960;28;20356;-72
2022/12/15 03:30:47;;;;;;;32.00;17.85;;;;;;;-4.76;100.00;100585.59;5073725;28;20029;-71
2022/12/15 03:33:12;;;;;;;31.27;18.30;;;;;;;-4.76;100.00;100577.66;5072564;28;20624;-71
2022/12/15 03:35:38;;;;;;;30.73;18.88;;;;;;;-4.76;100.00;100586.41;5072613;28;20025;-71
2022/12/15 03:38:03;;;;;;;31.85;18.73;;;;;;;-4.76;100.00;100590.84;5072188;28;20111;-71
2022/12/15 03:40:28;;;;;;;32.97;19.08;;;;;;;-4.77;100.00;100579.47;5072522;28;20024;-71
2022/12/15 03:42:54;;;;;;;32.70;18.98;;;;;;;-4.75;100.00;100584.63;5073800;28;20470;-71
2022/12/15 03:45:23;;;;;;;31.77;19.23;;;;;;;-4.76;100.00;100591.69;5071523;28;20027;-71
2022/12/15 03:47:49;;;;;;;36.38;19.42;;;;;;;-4.74;100.00;100588.91;5073377;28;20360;-71
2022/12/15 03:50:18;;;;;;;31.65;17.73;;;;;;;-4.75;100.00;100588.09;5073610;28;20077;-72
2022/12/15 03:52:43;;;;;;;31.27;18.10;;;;;;;-4.73;100.00;100594.06;5073319;28;20020;-72
2022/12/15 03:55:10;;;;;;;30.88;17.98;;;;;;;-4.71;100.00;100594.78;5071719;28;20027;-71
2022/12/15 03:57:35;;;;;;;34.10;17.83;;;;;;;-4.70;100.00;100598.25;5073257;28;20044;-71
2022/12/15 04:00:01;;;;;;;34.78;17.92;;;;;;;-4.69;100.00;100589.38;5073415;28;20020;-71
2022/12/15 04:02:26;;;;;;;36.00;18.75;;;;;;;-4.70;100.00;100592.97;5071000;28;20020;-71
2022/12/15 04:04:51;;;;;;;36.85;19.48;;;;;;;-4.66;100.00;100589.09;5068849;28;20074;-71
2022/12/15 04:07:17;;;;;;;31.80;18.77;;;;;;;-4.66;100.00;100581.19;5072163;28;20044;-71
2022/12/15 04:09:42;;;;;;;29.73;18.70;;;;;;;-4.66;100.00;100589.94;5072974;28;20024;-71
2022/12/15 04:12:10;;;;;;;34.63;18.83;;;;;;;-4.63;100.00;100583.56;5073231;28;20107;-72
2022/12/15 04:14:41;;;;;;;32.85;18.95;;;;;;;-4.66;100.00;100582.00;5070811;28;20032;-71
2022/12/15 04:17:09;;;;;;;31.38;18.23;;;;;;;-4.69;100.00;100576.16;5073088;28;20085;-71
2022/12/15 04:22:18;;;;;;;33.28;18.40;;;;;;;-4.71;100.00;100573.66;5072779;28;20093;-71
2022/12/15 05:33:07;;;;;;;38.25;19.90;;;;;;;-4.75;100.00;100619.78;5071070;28;20098;-72
2022/12/15 05:35:32;;;;;;;35.50;20.08;;;;;;;-4.78;100.00;100616.56;5071234;28;20436;-72
2022/12/15 05:37:57;;;;;;;37.42;20.15;;;;;;;-4.79;100.00;100620.16;5071636;28;20122;-72
2022/12/15 05:40:22;;;;;;;33.60;19.70;;;;;;;-4.80;100.00;100624.63;5072157;28;20042;-71
2022/12/15 05:42:48;;;;;;;36.33;20.23;;;;;;;-4.78;100.00;100620.03;5068576;28;20035;-71
2022/12/15 05:45:13;;;;;;;40.47;19.52;;;;;;;-4.79;100.00;100628.09;5071820;28;20436;-71
2022/12/15 05:47:38;;;;;;;37.40;21.17;;;;;;;-4.82;100.00;100630.00;5071793;28;20054;-71
2022/12/15 05:50:04;;;;;;;36.65;21.17;;;;;;;-4.82;100.00;100629.16;5073817;28;20032;-71
2022/12/15 05:52:29;;;;;;;37.05;19.65;;;;;;;-4.80;100.00;100632.53;5073823;28;20158;-71
2022/12/15 05:54:55;;;;;;;33.70;20.90;;;;;;;-4.78;100.00;100635.03;5074909;28;20090;-71
2022/12/15 05:57:20;;;;;;;37.40;21.20;;;;;;;-4.81;100.00;100631.69;5075458;28;20107;-71
2022/12/15 05:59:45;;;;;;;35.25;21.17;;;;;;;-4.78;100.00;100635.88;5075607;28;20035;-72
2022/12/15 06:02:10;;;;;;;37.83;22.25;;;;;;;-4.79;100.00;100636.81;5057869;28;20024;-72
2022/12/15 06:04:36;;;;;;;36.92;21.40;;;;;;;-4.74;100.00;100652.28;5073667;28;20653;-72
2022/12/15 06:07:01;;;;;;;41.00;22.55;;;;;;;-4.74;100.00;100649.63;5075412;28;20036;-72
2022/12/15 06:09:27;;;;;;;36.25;20.65;;;;;;;-4.75;100.00;100653.25;5075710;28;20024;-72
2022/12/15 06:11:53;;;;;;;39.97;21.38;;;;;;;-4.77;100.00;100652.53;5071429;28;20024;-71
2022/12/15 06:14:18;;;;;;;32.03;20.55;;;;;;;-4.78;100.00;100635.03;5074143;28;20119;-71
2022/12/15 06:16:44;;;;;;;37.58;21.92;;;;;;;-4.79;100.00;100628.91;5075277;28;20055;-71
2022/12/15 06:19:09;;;;;;;44.22;21.55;;;;;;;-4.78;100.00;100635.03;5075692;28;20024;-71
2022/12/15 06:21:35;;;;;;;38.28;21.60;;;;;;;-4.76;100.00;100639.19;5072947;28;20039;-71
2022/12/15 06:24:02;;;;;;;37.63;21.02;;;;;;;-4.73;100.00;100652.13;5075006;28;20024;-71
2022/12/15 06:26:36;;;;;;;33.00;21.13;;;;;;;-4.73;100.00;100638.94;5075160;28;20127;-72
2022/12/15 06:29:04;;;;;;;35.20;21.73;;;;;;;-4.75;100.00;100638.25;5074649;28;20470;-71
2022/12/15 06:31:31;;;;;;;35.83;20.73;;;;;;;-4.73;100.00;100646.03;5073526;28;20028;-71
2022/12/15 06:33:57;;;;;;;37.22;21.65;;;;;;;-4.74;100.00;100652.28;5074879;28;20519;-71
2022/12/15 06:36:23;;;;;;;33.03;19.70;;;;;;;-4.76;100.00;100656.84;5073929;28;20099;-71
2022/12/15 06:38:49;;;;;;;34.58;20.38;;;;;;;-4.81;100.00;100658.06;5074748;28;20021;-71
2022/12/15 06:41:16;;;;;;;36.92;21.05;;;;;;;-4.81;100.00;100657.25;5067976;28;20029;-71
2022/12/15 06:43:51;;;;;;;37.03;20.55;;;;;;;-4.78;100.00;100662.28;5054559;28;20029;-72
2022/12/15 06:46:16;;;;;;;33.72;19.98;;;;;;;-4.80;100.00;100653.66;5054864;28;20066;-71
2022/12/15 06:48:44;;;;;;;38.55;22.05;;;;;;;-4.84;100.00;100671.53;5054580;28;20025;-72
2022/12/15 06:51:10;;;;;;;39.20;21.23;;;;;;;-4.86;100.00;100659.41;5057442;28;20363;-72
2022/12/15 06:53:37;;;;;;;36.30;20.95;;;;;;;-4.89;100.00;100657.91;5073782;28;20471;-72
2022/12/15 06:56:06;;;;;;;38.85;20.65;;;;;;;-4.86;100.00;100655.00;5074462;28;20024;-72
2022/12/15 06:58:31;;;;;;;34.00;20.45;;;;;;;-4.83;100.00;100662.66;5074364;28;20027;-72
2022/12/15 07:00:57;;;;;;;37.35;21.15;;;;;;;-4.82;100.00;100661.66;5069112;28;20021;-71
2022/12/15 07:03:22;;;;;;;34.97;20.10;;;;;;;-4.80;100.00;100658.94;5074528;28;20028;-71
2022/12/15 07:05:58;;;;;;;34.47;20.38;;;;;;;-4.77;100.00;100657.81;5074232;28;20063;-72
2022/12/15 07:08:23;;;;;;;38.35;20.85;;;;;;;-4.76;100.00;100670.88;5074028;28;20041;-71
2022/12/15 07:10:49;;;;;;;33.83;20.77;;;;;;;-4.75;100.00;100661.19;5072291;28;20054;-71
2022/12/15 07:13:14;;;;;;;36.28;20.58;;;;;;;-4.75;100.00;100666.47;5074146;28;20052;-71
2022/12/15 07:15:40;;;;;;;35.13;19.95;;;;;;;-4.77;100.00;100668.38;5073022;28;20360;-71
2022/12/15 07:18:06;;;;;;;34.42;20.48;;;;;;;-4.76;100.00;100683.25;5074265;28;20089;-72
2022/12/15 07:20:32;;;;;;;38.97;20.48;;;;;;;-4.77;100.00;100673.66;5073300;28;20104;-71
2022/12/15 07:22:59;;;;;;;31.10;20.00;;;;;;;-4.75;100.00;100685.78;5072047;28;20100;-72
2022/12/15 07:25:24;;;;;;;37.10;20.17;;;;;;;-4.74;100.00;100674.25;5073771;28;20367;-72
2022/12/15 07:27:50;;;;;;;35.88;20.67;;;;;;;-4.73;100.00;100677.72;5073966;28;20021;-71
2022/12/15 07:30:16;;;;;;;36.17;19.77;;;;;;;-4.72;100.00;100676.75;5073999;28;20425;-72
2022/12/15 07:32:43;;;;;;;36.05;20.20;;;;;;;-4.69;100.00;100677.31;5070537;28;20025;-73
2022/12/15 07:35:08;;;;;;;36.63;20.50;;;;;;;-4.69;100.00;100679.13;5071311;28;20028;-71
2022/12/15 07:37:34;;;;;;;35.90;21.48;;;;;;;-4.69;100.00;100676.50;5074025;28;20460;-71
2022/12/15 07:40:00;;;;;;;40.20;20.25;;;;;;;-4.71;100.00;100676.63;5073681;28;20020;-71
2022/12/15 07:42:28;;;;;;;34.92;20.23;;;;;;;-4.71;100.00;100675.78;5071599;28;20464;-72
2022/12/15 07:44:53;;;;;;;39.50;21.80;;;;;;;-4.70;100.00;100680.09;5073438;28;20025;-72
2022/12/15 07:47:19;;;;;;;39.25;20.45;;;;;;;-4.69;100.00;100689.69;5073664;28;20027;-71
2022/12/15 07:49:45;;;;;;;37.15;21.33;;;;;;;-4.70;100.00;100690.66;5073429;28;20025;-72
2022/12/15 07:52:10;;;;;;;35.33;20.75;;;;;;;-4.67;100.00;100685.94;5071621;28;20104;-71
2022/12/15 07:54:35;;;;;;;40.70;21.90;;;;;;;-4.69;100.00;100687.06;5073536;28;20422;-72
2022/12/15 07:57:01;;;;;;;35.33;20.88;;;;;;;-4.72;100.00;100687.31;5073208;28;20024;-71
2022/12/15 07:59:27;;;;;;;37.05;21.17;;;;;;;-4.75;100.00;100688.41;5073735;28;20035;-71
2022/12/15 08:01:52;;;;;;;36.78;21.00;;;;;;;-4.71;100.00;100694.25;5068675;28;20085;-71
2022/12/15 08:04:17;;;;;;;38.85;21.67;;;;;;;-4.70;100.00;100704.69;5072205;28;20383;-72
2022/12/15 08:06:43;;;;;;;36.97;21.48;;;;;;;-4.67;100.00;100711.53;5072729;28;20103;-71
2022/12/15 08:09:09;;;;;;;37.05;20.63;;;;;;;-4.65;100.00;100710.44;5073035;28;20020;-71
2022/12/15 08:11:34;;;;;;;35.55;21.48;;;;;;;-4.61;100.00;100708.34;5070654;28;20036;-71
2022/12/15 08:14:00;;;;;;;41.90;20.73;;;;;;;-4.59;100.00;100708.22;5072540;28;20020;-72
2022/12/15 08:16:26;;;;;;;41.72;22.63;;;;;;;-4.60;100.00;100707.41;5071399;28;20036;-71
2022/12/15 08:18:52;;;;;;;36.88;21.00;;;;;;;-4.57;100.00;100711.59;5072253;28;20055;-71
2022/12/15 08:21:17;;;;;;;35.53;20.85;;;;;;;-4.54;100.00;100709.53;5071837;28;20111;-71
2022/12/15 08:23:43;;;;;;;38.05;21.45;;;;;;;-4.51;100.00;100713.72;5071705;28;20436;-71
2022/12/15 08:26:14;;;;;;;43.42;23.10;;;;;;;-4.48;100.00;100711.63;5071429;28;20024;-71
2022/12/15 08:28:40;;;;;;;36.08;21.70;;;;;;;-4.45;100.00;100719.28;5072813;28;20337;-72
2022/12/15 08:31:12;;;;;;;45.17;23.02;;;;;;;-4.42;100.00;100710.28;5071583;28;20029;-71
2022/12/15 08:33:38;;;;;;;39.85;22.08;;;;;;;-4.42;100.00;100707.63;5071660;28;20506;-72
2022/12/15 08:36:07;;;;;;;37.58;22.10;;;;;;;-4.37;100.00;100717.81;5071532;28;20028;-71
2022/12/15 08:38:33;;;;;;;41.50;22.27;;;;;;;-4.32;100.00;100710.31;5072824;28;20151;-72
2022/12/15 08:41:09;;;;;;;38.70;21.35;;;;;;;-4.27;100.00;100705.50;5071691;28;20063;-71
2022/12/15 08:43:36;;;;;;;41.08;22.42;;;;;;;-4.24;100.00;100702.59;5072452;28;20028;-72
2022/12/15 08:46:01;;;;;;;42.67;22.23;;;;;;;-4.23;100.00;100714.81;5070658;28;20020;-71
2022/12/15 08:48:27;;;;;;;40.63;22.80;;;;;;;-4.20;100.00;100711.06;5072698;28;20303;-71
2022/12/15 08:50:54;;;;;;;39.13;22.88;;;;;;;-4.18;100.00;100717.06;5071558;28;20028;-71
2022/12/15 08:53:19;;;;;;;39.22;23.42;;;;;;;-4.18;100.00;100712.63;5072583;28;20107;-72
2022/12/15 08:55:45;;;;;;;50.25;29.77;;;;;;;-4.15;100.00;100717.63;5071711;28;20112;-73
2022/12/15 08:58:10;;;;;;;47.33;27.42;;;;;;;-4.10;100.00;100726.00;5072077;28;20020;-74
2022/12/15 09:00:35;;;;;;;50.58;26.00;;;;;;;-4.07;100.00;100730.19;5070482;28;20027;-73
2022/12/15 09:03:00;;;;;;;41.53;25.38;;;;;;;-4.02;100.00;100732.44;5063824;28;20065;-72
2022/12/15 09:05:26;;;;;;;42.03;24.17;;;;;;;-3.99;100.00;100735.63;5069166;28;20083;-72
2022/12/15 09:07:55;;;;;;;40.92;24.00;;;;;;;-3.96;100.00;100742.47;5070821;28;20044;-72
2022/12/15 09:10:22;;;;;;;41.28;25.85;;;;;;;-3.93;100.00;100743.03;5071089;28;20032;-73
2022/12/15 09:12:48;;;;;;;40.67;23.98;;;;;;;-3.88;100.00;100755.88;5058492;28;20375;-73
2022/12/15 09:15:13;;;;;;;42.53;25.27;;;;;;;-3.86;100.00;100753.94;5052181;28;20036;-73
2022/12/15 09:17:38;;;;;;;42.03;23.98;;;;;;;-3.83;100.00;100753.66;5069059;28;20032;-72
2022/12/15 09:20:04;;;;;;;40.08;24.13;;;;;;;-3.81;100.00;100754.34;5067787;28;20111;-72
2022/12/15 09:22:30;;;;;;;41.22;24.48;;;;;;;-3.80;100.00;100757.84;5076981;28;20028;-72
2022/12/15 09:24:56;;;;;;;44.03;23.70;;;;;;;-3.81;100.00;100762.28;5071872;28;20031;-72
2022/12/15 09:27:21;;;;;;;40.22;24.02;;;;;;;-3.78;100.00;100767.31;5074853;28;20367;-73
2022/12/15 09:29:47;;;;;;;48.08;25.13;;;;;;;-3.77;100.00;100774.28;5076507;28;20440;-76
2022/12/15 09:32:13;;;;;;;38.33;24.08;;;;;;;-3.72;100.00;100781.81;5075974;28;20028;-76
